Time;durP1;ratioP1;P1;durP2;ratioP2;P2;SDS_P1;SDS_P2;PMS_P1;PMS_P2;Temp;Humidity;BMP_temperature;BMP_pressure;BME280_temperature;BME280_humidity;BME280_pressure;Samples;Min_cycle;Max_cycle;Signal;HPM_P1;HPM_P2
2021/09/19 00:01:58;;;;;;;5.67;2.47;;;;;;;15.57;63.81;99669.11;1742956;80;21051;-63
2021/09/19 00:04:25;;;;;;;5.80;2.62;;;;;;;15.65;63.63;99662.45;1749442;80;21085;-62
2021/09/19 00:06:53;;;;;;;5.25;2.58;;;;;;;15.74;63.50;99669.34;1767288;79;21234;-63
2021/09/19 00:09:19;;;;;;;4.40;2.00;;;;;;;15.77;63.17;99665.56;1765622;79;21000;-63
2021/09/19 00:11:47;;;;;;;4.85;2.17;;;;;;;15.72;63.15;99671.35;1769116;79;20999;-61
2021/09/19 00:14:15;;;;;;;4.30;2.08;;;;;;;15.64;63.20;99674.05;1768979;79;21089;-62
2021/09/19 00:16:44;;;;;;;4.45;2.25;;;;;;;15.58;63.30;99672.07;1779015;79;21120;-62
2021/09/19 00:19:11;;;;;;;4.58;2.20;;;;;;;15.56;63.45;99676.73;1774325;79;21133;-61
2021/09/19 00:21:38;;;;;;;4.20;2.08;;;;;;;15.54;63.38;99676.90;1742287;79;21556;-62
2021/09/19 00:24:07;;;;;;;4.17;1.80;;;;;;;15.53;63.22;99679.24;1769369;79;21399;-62
2021/09/19 00:26:34;;;;;;;3.52;1.60;;;;;;;15.52;63.26;99676.76;1771318;79;21074;-61
2021/09/19 00:29:02;;;;;;;5.70;2.33;;;;;;;15.52;63.16;99667.48;1768395;79;21018;-62
2021/09/19 00:31:28;;;;;;;5.33;2.22;;;;;;;15.51;63.14;99671.12;1775569;79;22371;-62
2021/09/19 00:33:56;;;;;;;4.30;2.17;;;;;;;15.54;63.07;99670.27;1744417;80;21948;-63
2021/09/19 00:36:22;;;;;;;4.87;2.22;;;;;;;15.59;62.96;99669.76;1742262;80;21101;-62
2021/09/19 00:38:50;;;;;;;4.85;1.77;;;;;;;15.63;62.96;99672.38;1773524;79;21079;-62
2021/09/19 00:41:16;;;;;;;3.83;2.00;;;;;;;15.66;63.00;99672.03;1747646;79;22062;-62
2021/09/19 00:43:43;;;;;;;4.12;1.92;;;;;;;15.66;62.93;99676.02;1762884;79;21151;-62
2021/09/19 00:46:11;;;;;;;3.77;1.82;;;;;;;15.67;62.96;99680.33;1765953;79;21553;-60
2021/09/19 00:48:37;;;;;;;4.22;2.30;;;;;;;15.68;62.87;99679.31;1765405;79;21034;-61
2021/09/19 00:51:06;;;;;;;4.28;2.22;;;;;;;15.69;62.87;99680.16;1771328;79;21066;-61
2021/09/19 00:53:36;;;;;;;4.40;2.10;;;;;;;15.70;62.92;99681.80;1771818;79;21027;-61
2021/09/19 00:56:04;;;;;;;4.15;1.82;;;;;;;15.71;63.00;99678.16;1770597;79;22256;-62
2021/09/19 00:58:32;;;;;;;4.20;2.22;;;;;;;15.72;62.93;99675.84;1744900;80;21717;-61
2021/09/19 01:01:01;;;;;;;4.80;2.30;;;;;;;15.73;63.04;99674.82;1770337;79;21043;-61
2021/09/19 01:03:29;;;;;;;4.80;2.35;;;;;;;15.79;63.12;99675.50;1768448;79;21086;-62
2021/09/19 01:05:59;;;;;;;4.03;1.90;;;;;;;15.87;62.98;99671.95;1770379;79;21070;-61
2021/09/19 01:08:27;;;;;;;5.15;2.05;;;;;;;15.92;62.99;99674.91;1773302;79;21035;-61
2021/09/19 01:10:55;;;;;;;4.47;2.15;;;;;;;15.96;63.04;99678.88;1765726;79;21090;-61
2021/09/19 01:13:23;;;;;;;4.53;2.27;;;;;;;15.98;62.90;99676.88;1702902;79;21531;-61
2021/09/19 01:15:51;;;;;;;6.55;2.35;;;;;;;15.99;63.12;99677.20;1767151;79;21523;-61
2021/09/19 01:18:17;;;;;;;4.62;2.33;;;;;;;15.98;63.03;99674.22;1738340;80;21019;-61
2021/09/19 01:20:45;;;;;;;5.30;2.62;;;;;;;15.96;63.23;99666.43;1775008;79;21756;-62
2021/09/19 01:23:14;;;;;;;5.00;2.58;;;;;;;15.96;63.47;99666.94;1757963;79;21080;-62
2021/09/19 01:25:41;;;;;;;6.10;2.83;;;;;;;15.95;63.44;99661.30;1766862;79;21050;-62
2021/09/19 01:28:10;;;;;;;5.83;2.90;;;;;;;15.92;63.62;99669.12;1736216;80;21037;-62
2021/09/19 01:30:37;;;;;;;5.03;2.60;;;;;;;15.95;63.58;99667.92;1771799;79;21053;-62
2021/09/19 01:33:04;;;;;;;6.03;2.70;;;;;;;16.02;63.36;99665.40;1763222;79;21424;-62
2021/09/19 01:35:30;;;;;;;4.33;2.33;;;;;;;16.08;63.42;99668.69;1772828;79;21070;-62
2021/09/19 01:37:58;;;;;;;5.97;3.33;;;;;;;16.11;63.64;99666.50;1774156;79;21074;-61
2021/09/19 01:40:26;;;;;;;5.58;2.87;;;;;;;16.10;63.86;99668.82;1770157;79;21054;-61
2021/09/19 01:42:52;;;;;;;5.28;2.90;;;;;;;16.10;63.82;99674.13;1767222;79;21058;-61
2021/09/19 01:45:20;;;;;;;5.55;3.17;;;;;;;16.08;63.75;99670.83;1773060;79;21139;-62
2021/09/19 01:47:49;;;;;;;6.10;2.95;;;;;;;16.06;63.52;99674.17;1771310;79;21073;-61
2021/09/19 01:50:20;;;;;;;4.80;2.60;;;;;;;16.00;63.58;99678.84;1768973;79;21051;-62
2021/09/19 01:52:48;;;;;;;4.95;2.62;;;;;;;15.95;63.59;99678.54;1705777;82;21079;-61
2021/09/19 01:55:16;;;;;;;7.42;2.98;;;;;;;15.87;63.80;99672.80;1762722;79;21745;-61
2021/09/19 01:57:43;;;;;;;5.22;2.90;;;;;;;15.84;63.93;99669.67;1769589;79;21415;-61
2021/09/19 02:00:11;;;;;;;5.70;2.65;;;;;;;15.85;63.96;99669.98;1745515;80;21516;-61
2021/09/19 02:02:37;;;;;;;5.17;2.37;;;;;;;15.86;64.06;99667.16;1764188;79;21074;-62
2021/09/19 02:05:07;;;;;;;6.35;3.52;;;;;;;15.84;64.17;99667.02;1765948;79;21060;-61
2021/09/19 02:07:35;;;;;;;8.58;2.95;;;;;;;15.79;64.38;99664.38;1767537;79;21791;-62
2021/09/19 02:10:08;;;;;;;6.55;3.20;;;;;;;15.77;64.48;99658.94;1698214;82;21151;-62
2021/09/19 02:12:37;;;;;;;5.62;2.95;;;;;;;15.76;64.60;99660.73;1737960;79;21142;-62
2021/09/19 02:15:06;;;;;;;5.58;2.60;;;;;;;15.76;64.60;99663.39;1743006;80;21052;-63
2021/09/19 02:17:32;;;;;;;5.20;2.70;;;;;;;15.75;64.69;99660.44;1772718;79;21004;-62
2021/09/19 02:19:59;;;;;;;4.97;2.37;;;;;;;15.71;64.66;99661.73;1765167;79;21086;-63
2021/09/19 02:22:25;;;;;;;4.58;2.12;;;;;;;15.72;64.62;99657.28;1762266;79;21115;-62
2021/09/19 02:24:53;;;;;;;4.95;2.60;;;;;;;15.78;64.45;99653.45;1741405;80;21027;-62
2021/09/19 02:27:20;;;;;;;5.65;2.83;;;;;;;15.82;64.29;99649.95;1768182;79;21011;-62
2021/09/19 02:29:48;;;;;;;8.65;2.90;;;;;;;15.84;64.26;99643.97;1761462;80;21959;-63
2021/09/19 02:32:17;;;;;;;7.30;3.05;;;;;;;15.85;64.35;99652.73;1766894;79;21087;-60
2021/09/19 02:34:43;;;;;;;5.37;2.37;;;;;;;15.84;64.46;99654.58;1765090;79;21148;-61
2021/09/19 02:37:11;;;;;;;6.15;2.52;;;;;;;15.85;64.53;99650.91;1768280;79;21070;-61
2021/09/19 02:39:39;;;;;;;5.67;3.15;;;;;;;15.85;64.52;99654.06;1763248;79;21102;-62
2021/09/19 02:42:05;;;;;;;6.53;2.80;;;;;;;15.82;64.49;99652.61;1764840;79;21498;-61
2021/09/19 02:44:32;;;;;;;6.92;2.67;;;;;;;15.78;64.52;99656.11;1766966;79;20980;-61
2021/09/19 02:46:59;;;;;;;4.80;2.37;;;;;;;15.80;64.59;99651.92;1734397;80;21346;-62
2021/09/19 02:49:27;;;;;;;5.67;2.47;;;;;;;15.86;64.44;99657.05;1764134;79;20999;-62
2021/09/19 02:51:54;;;;;;;5.33;2.90;;;;;;;15.85;64.31;99654.88;1698280;82;21102;-62
2021/09/19 02:54:20;;;;;;;5.83;3.02;;;;;;;15.84;64.50;99653.76;1744273;80;21024;-61
2021/09/19 02:56:47;;;;;;;7.70;2.75;;;;;;;15.84;64.64;99649.78;1732842;80;21032;-62
2021/09/19 02:59:15;;;;;;;5.58;2.58;;;;;;;15.85;64.63;99655.39;1738408;80;21087;-61
2021/09/19 03:01:43;;;;;;;6.15;2.83;;;;;;;15.88;64.64;99655.05;1737759;80;21660;-61
2021/09/19 03:04:10;;;;;;;4.67;2.80;;;;;;;15.87;64.36;99647.59;1739890;80;21099;-62
2021/09/19 03:06:36;;;;;;;5.80;2.90;;;;;;;15.87;64.40;99654.70;1751363;80;21178;-61
2021/09/19 03:09:04;;;;;;;5.08;2.83;;;;;;;15.85;64.32;99656.72;1744216;80;21059;-62
2021/09/19 03:11:31;;;;;;;6.83;2.70;;;;;;;15.82;64.39;99654.41;1753177;80;21054;-62
2021/09/19 03:13:59;;;;;;;5.15;2.50;;;;;;;15.83;64.31;99650.26;1745462;80;21080;-62
2021/09/19 03:16:26;;;;;;;5.00;2.80;;;;;;;15.90;64.17;99658.34;1750641;80;21083;-62
2021/09/19 03:18:54;;;;;;;5.50;2.80;;;;;;;15.93;64.01;99656.16;1716436;80;21049;-63
2021/09/19 03:21:21;;;;;;;5.67;2.77;;;;;;;15.92;64.12;99656.33;1744670;80;21059;-62
2021/09/19 03:23:48;;;;;;;5.20;2.77;;;;;;;15.91;64.35;99654.70;1738327;80;21096;-62
2021/09/19 03:26:16;;;;;;;4.78;2.40;;;;;;;15.87;64.32;99660.86;1737548;80;21041;-62
2021/09/19 03:28:44;;;;;;;8.38;3.58;;;;;;;15.84;64.49;99666.52;1740768;80;21581;-62
2021/09/19 03:31:10;;;;;;;6.70;2.98;;;;;;;15.81;64.61;99668.69;1743534;80;21756;-62
2021/09/19 03:33:38;;;;;;;5.58;2.87;;;;;;;15.75;64.72;99663.53;1744831;80;21060;-62
2021/09/19 03:37:59;;;;;;;4.60;2.50;;;;;;;15.73;64.95;99665.03;1784773;77;22785;-61
2021/09/19 03:40:25;;;;;;;5.72;2.90;;;;;;;15.69;64.90;99663.73;1758595;79;22693;-61
2021/09/19 03:42:54;;;;;;;6.25;2.50;;;;;;;15.71;65.07;99660.41;1756024;79;21031;-61
2021/09/19 03:45:28;;;;;;;5.20;2.72;;;;;;;15.73;64.96;99659.72;1756992;79;21620;-61
2021/09/19 03:47:53;;;;;;;5.83;2.90;;;;;;;15.72;65.04;99659.42;1762957;79;21003;-61
2021/09/19 03:50:19;;;;;;;6.35;3.10;;;;;;;15.68;65.23;99660.75;1739810;80;21008;-62
2021/09/19 03:52:46;;;;;;;5.55;3.15;;;;;;;15.65;65.39;99662.92;1764826;79;21846;-61
2021/09/19 03:55:13;;;;;;;5.25;2.98;;;;;;;15.63;65.62;99660.45;1761018;79;21197;-62
2021/09/19 03:57:39;;;;;;;5.30;2.65;;;;;;;15.60;65.38;99671.39;1760286;79;21035;-62
2021/09/19 04:00:08;;;;;;;6.92;3.15;;;;;;;15.55;65.47;99665.78;1758912;79;20927;-62
2021/09/19 04:02:40;;;;;;;5.15;2.60;;;;;;;15.44;65.59;99664.86;1756836;79;21027;-60
2021/09/19 04:05:09;;;;;;;6.62;2.87;;;;;;;15.37;65.68;99658.91;1742677;79;21712;-61
2021/09/19 04:07:36;;;;;;;6.85;2.80;;;;;;;15.38;65.73;99654.42;1724030;81;22184;-61
2021/09/19 04:10:04;;;;;;;4.40;2.20;;;;;;;15.38;65.83;99653.09;1711617;81;21071;-61
2021/09/19 04:12:31;;;;;;;5.72;2.58;;;;;;;15.41;66.19;99656.23;1684933;83;21097;-61
2021/09/19 04:14:59;;;;;;;7.65;2.70;;;;;;;15.44;65.83;99658.23;1707212;81;21717;-61
2021/09/19 04:17:26;;;;;;;4.65;2.20;;;;;;;15.43;65.86;99657.38;1689347;83;21547;-61
2021/09/19 04:19:53;;;;;;;6.42;3.00;;;;;;;15.43;65.71;99652.08;1706666;81;21101;-60
2021/09/19 04:22:20;;;;;;;5.00;2.15;;;;;;;15.42;65.86;99652.59;1686385;81;21599;-60
2021/09/19 04:24:46;;;;;;;5.65;2.60;;;;;;;15.46;65.81;99654.91;1707414;81;21081;-61
2021/09/19 04:27:13;;;;;;;4.65;1.77;;;;;;;15.45;65.86;99657.21;1715659;81;21065;-61
2021/09/19 04:29:39;;;;;;;5.58;2.20;;;;;;;15.43;65.86;99665.34;1707806;81;21096;-61
2021/09/19 04:32:06;;;;;;;4.28;1.70;;;;;;;15.47;65.86;99672.47;1699606;81;21106;-60
2021/09/19 04:34:33;;;;;;;3.65;1.57;;;;;;;15.53;65.42;99669.96;1706176;81;21059;-61
2021/09/19 04:37:02;;;;;;;3.20;1.30;;;;;;;15.49;64.72;99666.49;1700753;81;21105;-62
2021/09/19 04:39:28;;;;;;;3.27;1.20;;;;;;;15.45;65.28;99667.81;1693202;82;21051;-61
2021/09/19 04:41:56;;;;;;;3.25;1.42;;;;;;;15.46;65.28;99672.13;1692821;82;21071;-61
2021/09/19 04:44:23;;;;;;;3.47;1.47;;;;;;;15.46;65.10;99671.63;1751560;79;21155;-61
2021/09/19 04:46:50;;;;;;;3.47;1.10;;;;;;;15.45;65.14;99668.66;1722187;81;21552;-61
2021/09/19 04:49:17;;;;;;;2.55;0.88;;;;;;;15.42;64.84;99661.05;1749864;79;21087;-60
2021/09/19 04:51:43;;;;;;;2.25;0.82;;;;;;;15.40;64.62;99667.03;1723573;79;21095;-59
2021/09/19 04:54:11;;;;;;;3.15;1.02;;;;;;;15.34;64.54;99663.73;1740984;81;21066;-59
2021/09/19 04:56:38;;;;;;;3.98;1.22;;;;;;;15.32;64.68;99666.55;1758743;79;21218;-60
2021/09/19 04:59:06;;;;;;;2.40;0.85;;;;;;;15.38;64.99;99666.35;1752585;79;21093;-58
2021/09/19 05:01:32;;;;;;;1.82;0.60;;;;;;;15.46;64.91;99669.48;1743600;79;21098;-58
2021/09/19 05:03:59;;;;;;;3.05;0.93;;;;;;;15.48;64.60;99671.45;1746258;79;21145;-58
2021/09/19 05:06:25;;;;;;;2.37;0.98;;;;;;;15.44;64.96;99667.51;1752420;79;21058;-58
2021/09/19 05:08:52;;;;;;;3.65;1.10;;;;;;;15.44;65.67;99662.20;1751890;79;21543;-58
2021/09/19 05:11:19;;;;;;;3.87;1.30;;;;;;;15.45;65.85;99665.17;1745895;79;21076;-58
2021/09/19 05:13:47;;;;;;;3.02;1.22;;;;;;;15.45;66.02;99671.31;1729385;81;21540;-58
2021/09/19 05:16:13;;;;;;;2.55;1.00;;;;;;;15.48;66.24;99675.43;1734870;81;21587;-58
2021/09/19 05:18:40;;;;;;;2.90;1.02;;;;;;;15.52;65.97;99674.11;1746490;81;20992;-58
2021/09/19 05:21:08;;;;;;;2.98;1.30;;;;;;;15.62;65.63;99670.74;1757318;79;21639;-58
2021/09/19 05:23:34;;;;;;;3.65;1.47;;;;;;;15.69;65.10;99666.90;1752552;79;21036;-57
2021/09/19 05:26:01;;;;;;;3.67;1.30;;;;;;;15.71;64.86;99664.38;1751709;79;21095;-57
2021/09/19 05:28:27;;;;;;;2.50;0.60;;;;;;;15.75;64.80;99669.72;1754999;79;21102;-58
2021/09/19 05:30:53;;;;;;;2.65;0.82;;;;;;;15.78;63.87;99665.87;1761467;79;21114;-58
2021/09/19 05:33:20;;;;;;;2.42;0.82;;;;;;;15.79;63.96;99665.70;1737419;81;21135;-58
2021/09/19 05:35:46;;;;;;;3.10;1.15;;;;;;;15.82;63.96;99669.00;1745547;79;21011;-59
2021/09/19 05:38:13;;;;;;;3.15;1.25;;;;;;;15.82;64.00;99665.87;1748981;79;21106;-59
2021/09/19 05:40:41;;;;;;;4.62;1.95;;;;;;;15.80;64.48;99665.19;1741453;79;21074;-60
2021/09/19 05:43:07;;;;;;;3.17;1.50;;;;;;;15.78;64.62;99665.39;1751956;79;21021;-59
2021/09/19 05:45:34;;;;;;;3.58;1.30;;;;;;;15.81;64.65;99666.86;1732834;80;21001;-58
2021/09/19 05:48:00;;;;;;;3.87;1.12;;;;;;;15.89;64.66;99665.48;1747193;79;21067;-58
2021/09/19 05:50:27;;;;;;;3.17;1.20;;;;;;;15.95;64.49;99664.80;1743596;79;21580;-58
2021/09/19 05:52:53;;;;;;;2.90;1.27;;;;;;;16.01;64.37;99663.77;1717598;80;21872;-58
2021/09/19 05:55:21;;;;;;;3.05;1.10;;;;;;;16.02;64.45;99660.09;1745703;79;21110;-59
2021/09/19 05:57:49;;;;;;;4.53;1.50;;;;;;;15.99;63.39;99654.66;1744588;79;21653;-57
2021/09/19 06:00:16;;;;;;;3.35;1.42;;;;;;;15.97;63.84;99655.34;1740803;79;21074;-58
2021/09/19 06:02:44;;;;;;;2.42;0.95;;;;;;;15.98;63.76;99660.95;1746800;79;21034;-58
2021/09/19 06:05:12;;;;;;;3.10;1.42;;;;;;;15.95;63.83;99658.64;1753761;79;21087;-58
2021/09/19 06:07:38;;;;;;;4.05;1.15;;;;;;;15.96;63.83;99658.98;1755175;79;21636;-58
2021/09/19 06:10:05;;;;;;;4.08;1.77;;;;;;;15.95;63.40;99663.95;1743335;80;22243;-60
2021/09/19 06:12:31;;;;;;;3.77;1.45;;;;;;;15.92;63.39;99653.20;1721342;81;20951;-58
2021/09/19 06:14:59;;;;;;;6.15;1.82;;;;;;;15.95;63.19;99658.64;1748282;79;20892;-58
2021/09/19 06:17:26;;;;;;;4.37;1.60;;;;;;;15.99;63.02;99658.63;1737930;79;21003;-61
2021/09/19 06:19:54;;;;;;;3.40;1.25;;;;;;;16.04;62.87;99662.91;1742188;79;21718;-59
2021/09/19 06:22:20;;;;;;;4.40;1.30;;;;;;;16.05;63.04;99659.23;1755942;79;21140;-59
2021/09/19 06:24:48;;;;;;;3.98;1.50;;;;;;;16.08;63.20;99659.40;1708938;82;21068;-59
2021/09/19 06:27:16;;;;;;;3.87;1.98;;;;;;;16.09;63.03;99664.53;1690877;82;21102;-59
2021/09/19 06:29:42;;;;;;;4.37;1.40;;;;;;;16.14;63.45;99657.37;1693457;82;21011;-59
2021/09/19 06:32:09;;;;;;;3.60;1.30;;;;;;;16.19;63.65;99657.67;1691910;82;20980;-59
2021/09/19 06:34:38;;;;;;;4.17;1.22;;;;;;;16.27;63.08;99655.44;1699190;82;20995;-59
2021/09/19 06:37:05;;;;;;;3.20;1.32;;;;;;;16.33;63.06;99658.20;1696195;82;21020;-58
2021/09/19 06:39:32;;;;;;;3.47;1.50;;;;;;;16.37;63.19;99657.34;1747927;79;21000;-59
2021/09/19 06:42:00;;;;;;;3.62;1.10;;;;;;;16.43;62.89;99651.84;1742462;79;20954;-58
2021/09/19 06:44:28;;;;;;;2.77;1.10;;;;;;;16.57;62.42;99654.20;1751327;79;21059;-59
2021/09/19 06:46:56;;;;;;;2.62;0.90;;;;;;;16.69;62.08;99653.61;1750232;79;21047;-59
2021/09/19 06:49:25;;;;;;;4.50;1.00;;;;;;;16.82;62.01;99643.66;1735701;79;21035;-59
2021/09/19 06:51:53;;;;;;;4.28;1.62;;;;;;;16.93;61.76;99646.91;1745285;79;21053;-60
2021/09/19 06:54:21;;;;;;;3.27;1.50;;;;;;;17.02;61.79;99642.66;1734724;80;21103;-60
2021/09/19 06:56:48;;;;;;;5.08;1.57;;;;;;;17.11;61.51;99643.39;1684084;83;21117;-59
2021/09/19 06:59:15;;;;;;;4.37;1.80;;;;;;;17.13;61.03;99644.05;1661985;84;21861;-58
2021/09/19 07:01:43;;;;;;;3.67;1.27;;;;;;;17.11;61.32;99650.03;1736784;80;21114;-58
2021/09/19 07:04:10;;;;;;;3.08;1.35;;;;;;;17.08;61.36;99643.27;1751794;79;21353;-58
2021/09/19 07:06:38;;;;;;;7.42;2.17;;;;;;;17.07;61.46;99644.77;1748236;79;21055;-58
2021/09/19 07:09:06;;;;;;;3.80;1.55;;;;;;;17.07;61.74;99644.77;1745444;79;21717;-57
2021/09/19 07:11:36;;;;;;;3.58;1.25;;;;;;;17.13;61.91;99636.08;1749408;79;21293;-58
2021/09/19 07:14:03;;;;;;;4.75;1.35;;;;;;;17.24;61.61;99636.11;1740924;79;21053;-58
2021/09/19 07:16:31;;;;;;;3.80;1.40;;;;;;;17.33;61.54;99637.67;1733912;81;21063;-58
2021/09/19 07:18:59;;;;;;;3.70;1.60;;;;;;;17.40;61.44;99636.40;1749012;79;21031;-59
2021/09/19 07:21:27;;;;;;;4.33;1.70;;;;;;;17.42;61.05;99633.89;1745172;79;21095;-57
2021/09/19 07:23:53;;;;;;;3.90;1.80;;;;;;;17.44;60.99;99635.84;1743954;79;21145;-58
2021/09/19 07:26:20;;;;;;;4.40;1.90;;;;;;;17.45;60.92;99643.34;1746271;79;22450;-58
2021/09/19 07:28:47;;;;;;;4.95;2.12;;;;;;;17.44;60.85;99639.02;1759812;79;21036;-58
2021/09/19 07:31:14;;;;;;;4.10;1.87;;;;;;;17.44;61.22;99637.17;1747402;79;21869;-58
2021/09/19 07:33:41;;;;;;;4.45;2.37;;;;;;;17.46;61.47;99642.31;1683736;83;21094;-57
2021/09/19 07:36:08;;;;;;;4.25;2.00;;;;;;;17.49;61.77;99638.47;1693801;82;21137;-57
2021/09/19 07:38:35;;;;;;;4.70;2.30;;;;;;;17.55;61.42;99640.37;1697449;82;21106;-58
2021/09/19 07:41:01;;;;;;;4.40;1.80;;;;;;;17.63;61.06;99629.14;1671397;82;21050;-57
2021/09/19 07:43:28;;;;;;;6.05;2.33;;;;;;;17.77;60.97;99627.44;1674941;82;21370;-59
2021/09/19 07:45:55;;;;;;;4.62;2.10;;;;;;;17.92;60.86;99625.25;1680247;83;21047;-61
2021/09/19 07:48:23;;;;;;;4.15;2.17;;;;;;;18.08;60.81;99621.02;1683510;83;21111;-58
2021/09/19 07:50:50;;;;;;;4.83;2.50;;;;;;;18.18;60.60;99620.19;1705325;82;21038;-59
2021/09/19 07:53:17;;;;;;;6.75;2.47;;;;;;;18.29;60.98;99614.87;1753237;79;21024;-58
2021/09/19 07:55:44;;;;;;;4.50;2.10;;;;;;;18.36;60.59;99620.25;1752130;79;21512;-59
2021/09/19 07:58:10;;;;;;;4.37;2.00;;;;;;;18.42;60.21;99622.13;1757139;79;21089;-60
2021/09/19 08:00:37;;;;;;;5.08;2.65;;;;;;;18.48;60.23;99628.02;1755468;79;21548;-59
2021/09/19 08:03:03;;;;;;;5.20;2.50;;;;;;;18.56;60.17;99627.07;1748449;79;21917;-56
2021/09/19 08:05:30;;;;;;;4.10;2.15;;;;;;;18.61;60.28;99623.80;1752219;79;21106;-60
2021/09/19 08:07:56;;;;;;;6.85;2.15;;;;;;;18.63;60.14;99626.60;1749059;79;21298;-59
2021/09/19 08:10:22;;;;;;;6.40;2.20;;;;;;;18.68;60.06;99628.17;1749067;79;21014;-59
2021/09/19 08:12:51;;;;;;;4.60;2.02;;;;;;;18.77;60.03;99621.37;1751101;79;20991;-58
2021/09/19 08:15:20;;;;;;;4.83;2.72;;;;;;;18.87;60.05;99621.35;1744165;80;21043;-60
2021/09/19 08:17:47;;;;;;;5.50;2.77;;;;;;;18.97;59.67;99614.86;1754623;79;21559;-60
2021/09/19 08:20:15;;;;;;;5.35;2.75;;;;;;;19.02;59.36;99609.77;1729614;81;21023;-60
2021/09/19 08:22:42;;;;;;;5.05;2.77;;;;;;;19.04;58.71;99618.38;1730362;80;21030;-60
2021/09/19 08:25:11;;;;;;;11.00;3.47;;;;;;;19.04;58.83;99614.38;1750904;79;21018;-61
2021/09/19 08:27:38;;;;;;;7.58;2.80;;;;;;;19.06;58.87;99613.66;1753397;79;21003;-61
2021/09/19 08:30:06;;;;;;;5.75;2.47;;;;;;;19.04;58.77;99609.86;1752814;79;21565;-61
2021/09/19 08:32:32;;;;;;;4.78;2.60;;;;;;;19.00;58.91;99606.47;1751647;79;21051;-60
2021/09/19 08:34:59;;;;;;;5.83;2.80;;;;;;;18.96;59.16;99598.02;1752006;79;21019;-60
2021/09/19 08:37:26;;;;;;;5.25;2.65;;;;;;;18.96;59.62;99595.36;1754537;79;22960;-60
2021/09/19 08:39:53;;;;;;;5.03;2.58;;;;;;;18.98;59.60;99592.00;1757673;79;21085;-60
2021/09/19 08:42:21;;;;;;;6.28;2.95;;;;;;;19.05;59.82;99595.52;1756335;79;21082;-60
2021/09/19 08:44:48;;;;;;;5.03;2.75;;;;;;;19.10;59.86;99590.94;1753075;79;21094;-60
2021/09/19 08:47:14;;;;;;;6.17;3.40;;;;;;;19.19;59.91;99591.59;1755593;79;21078;-60
2021/09/19 08:49:43;;;;;;;6.85;3.50;;;;;;;19.26;59.47;99597.77;1756633;79;22838;-60
2021/09/19 08:52:11;;;;;;;5.87;2.87;;;;;;;19.28;59.35;99589.89;1752316;79;21081;-60
2021/09/19 08:54:39;;;;;;;8.03;3.52;;;;;;;19.33;59.19;99590.60;1753538;79;21078;-59
2021/09/19 08:57:06;;;;;;;5.87;3.45;;;;;;;19.38;59.11;99589.48;1759386;80;21054;-59
2021/09/19 08:59:53;;;;;;;6.92;3.50;;;;;;;19.42;58.97;99584.61;1726892;79;21094;-59
2021/09/19 09:02:20;;;;;;;8.45;3.37;;;;;;;19.39;59.31;99576.48;1753495;79;22442;-58
2021/09/19 09:04:47;;;;;;;6.22;3.95;;;;;;;19.31;59.16;99580.66;1734674;79;21114;-60
2021/09/19 09:07:15;;;;;;;7.65;4.33;;;;;;;19.24;59.65;99587.81;1752013;80;21001;-60
2021/09/19 09:09:54;;;;;;;7.87;3.72;;;;;;;19.16;60.71;99581.31;1757335;79;21074;-60
2021/09/19 09:12:23;;;;;;;5.87;3.52;;;;;;;19.13;62.03;99571.85;1760949;79;21082;-59
2021/09/19 09:14:54;;;;;;;6.47;3.08;;;;;;;19.16;62.62;99575.45;1755495;79;21377;-60
2021/09/19 09:17:26;;;;;;;7.20;3.72;;;;;;;19.22;63.10;99575.20;1762348;79;21126;-61
2021/09/19 09:19:56;;;;;;;6.40;3.90;;;;;;;19.26;63.37;99585.77;1755548;79;21106;-59
2021/09/19 09:22:31;;;;;;;6.97;4.03;;;;;;;19.28;63.88;99582.37;1752746;79;21048;-60
2021/09/19 09:25:17;;;;;;;7.03;4.17;;;;;;;19.26;63.54;99583.91;1732110;79;21109;-61
2021/09/19 09:27:48;;;;;;;6.15;3.52;;;;;;;19.25;63.64;99588.14;1754125;79;21536;-60
2021/09/19 09:30:21;;;;;;;6.05;3.67;;;;;;;19.22;63.12;99583.19;1751587;79;21079;-60
2021/09/19 09:33:04;;;;;;;7.33;3.12;;;;;;;19.14;62.22;99586.03;1732718;81;21127;-59
2021/09/19 09:35:40;;;;;;;5.95;3.20;;;;;;;19.08;62.38;99584.47;1754273;79;21162;-59
2021/09/19 09:38:23;;;;;;;6.58;3.37;;;;;;;19.06;63.45;99574.52;1749911;79;21705;-60
2021/09/19 09:40:50;;;;;;;6.60;3.42;;;;;;;19.09;63.88;99575.42;1752141;79;21230;-61
2021/09/19 09:43:18;;;;;;;6.33;3.15;;;;;;;19.21;64.13;99573.02;1710076;82;21134;-61
2021/09/19 09:45:48;;;;;;;5.75;3.30;;;;;;;19.41;63.91;99568.28;1693502;82;21016;-62
2021/09/19 09:48:38;;;;;;;6.70;3.20;;;;;;;19.62;63.42;99561.98;1699802;82;21053;-61
2021/09/19 09:51:03;;;;;;;7.03;3.70;;;;;;;19.82;63.08;99560.69;1693885;82;21090;-60
2021/09/19 09:53:29;;;;;;;5.87;3.15;;;;;;;20.00;62.05;99562.77;1695970;82;21138;-59
2021/09/19 09:55:59;;;;;;;5.33;3.08;;;;;;;20.13;62.18;99560.11;1696796;82;21019;-60
2021/09/19 09:58:26;;;;;;;5.95;3.50;;;;;;;20.19;61.44;99563.30;1697528;82;21560;-60
2021/09/19 10:00:54;;;;;;;7.75;3.40;;;;;;;20.23;61.60;99561.84;1675194;82;21066;-59
2021/09/19 10:03:21;;;;;;;6.05;3.60;;;;;;;20.25;61.50;99564.31;1725935;79;21075;-63
2021/09/19 10:05:47;;;;;;;5.22;2.98;;;;;;;20.29;61.63;99563.39;1730227;79;21153;-63
2021/09/19 10:08:14;;;;;;;5.50;3.10;;;;;;;20.33;61.95;99556.62;1755868;79;21066;-64
2021/09/19 10:10:43;;;;;;;5.83;2.42;;;;;;;20.44;61.54;99554.63;1753474;79;21598;-62
2021/09/19 10:13:13;;;;;;;6.03;2.62;;;;;;;20.53;61.17;99551.25;1752026;79;21282;-63
2021/09/19 10:15:42;;;;;;;5.62;2.45;;;;;;;20.58;58.91;99550.92;1753034;79;22299;-64
2021/09/19 10:18:11;;;;;;;4.90;2.65;;;;;;;20.52;57.57;99547.73;1756746;79;21424;-63
2021/09/19 10:20:44;;;;;;;5.42;2.52;;;;;;;20.43;58.26;99549.00;1750626;79;21064;-63
2021/09/19 10:23:22;;;;;;;5.12;2.17;;;;;;;20.36;56.90;99546.86;1758725;79;21654;-63
2021/09/19 10:25:52;;;;;;;4.95;2.47;;;;;;;20.21;56.36;99551.89;1759965;79;21023;-65
2021/09/19 10:28:40;;;;;;;4.60;2.95;;;;;;;20.04;56.60;99553.34;1754845;79;21008;-67
2021/09/19 10:31:15;;;;;;;5.20;2.80;;;;;;;19.80;54.08;99569.42;1753001;79;21162;-65
2021/09/19 10:33:51;;;;;;;6.40;3.52;;;;;;;19.45;54.47;99558.83;1746045;79;21488;-64
2021/09/19 10:36:29;;;;;;;5.33;3.05;;;;;;;19.16;54.91;99570.64;1748037;79;21464;-65
2021/09/19 10:39:26;;;;;;;5.40;3.08;;;;;;;18.93;55.82;99574.45;1743911;79;21039;-65
2021/09/19 10:42:25;;;;;;;7.00;3.90;;;;;;;18.74;57.27;99581.27;1752628;80;20956;-65
2021/09/19 10:44:53;;;;;;;;;;;;;;;18.54;58.48;99585.97;1757332;80;21177;-65
2021/09/19 10:47:28;;;;;;;6.60;3.87;;;;;;;18.32;59.34;99587.02;1716962;81;20172;-66
2021/09/19 10:50:21;;;;;;;4.75;2.98;;;;;;;18.11;60.44;99586.55;1747355;79;21055;-64
2021/09/19 10:52:53;;;;;;;6.12;3.55;;;;;;;18.03;61.70;99585.34;1749374;79;22313;-64
2021/09/19 10:55:36;;;;;;;5.80;3.60;;;;;;;18.00;62.35;99586.05;1757802;79;21007;-64
2021/09/19 10:58:13;;;;;;;5.43;3.50;;;;;;;17.97;62.63;99581.59;1743376;79;21638;-63
2021/09/19 11:00:43;;;;;;;7.00;3.90;;;;;;;17.92;63.13;99583.52;1739665;79;21831;-64
2021/09/19 11:03:16;;;;;;;6.03;4.05;;;;;;;17.87;63.46;99582.41;1755041;80;21055;-64
2021/09/19 11:05:49;;;;;;;6.45;4.37;;;;;;;17.85;63.72;99589.73;1755258;80;21745;-64
2021/09/19 11:08:24;;;;;;;6.92;4.00;;;;;;;17.82;63.89;99588.30;1752885;80;21019;-64
2021/09/19 11:11:03;;;;;;;5.35;3.80;;;;;;;17.83;64.25;99593.40;1756004;79;21039;-64
2021/09/19 11:13:42;;;;;;;5.45;3.33;;;;;;;17.90;64.71;99586.84;1758631;80;21078;-65
2021/09/19 11:16:25;;;;;;;4.87;2.42;;;;;;;18.03;64.44;99592.81;1751437;79;21056;-63
2021/09/19 11:19:00;;;;;;;4.80;2.33;;;;;;;18.04;62.34;99590.48;1745416;80;21112;-64
2021/09/19 11:21:31;;;;;;;3.65;1.72;;;;;;;17.97;62.35;99588.23;1730689;81;20968;-63
2021/09/19 11:24:02;;;;;;;3.55;1.72;;;;;;;17.92;61.65;99595.97;1752087;80;21148;-63
2021/09/19 11:26:34;;;;;;;3.42;1.40;;;;;;;17.87;61.39;99598.38;1750618;79;21059;-63
2021/09/19 11:29:08;;;;;;;3.55;1.12;;;;;;;17.76;61.17;99602.34;1724382;80;21352;-63
2021/09/19 11:31:37;;;;;;;3.40;1.40;;;;;;;17.67;61.80;99603.47;1708575;80;21130;-63
2021/09/19 11:34:09;;;;;;;2.92;0.90;;;;;;;17.60;61.62;99606.05;1755268;80;21630;-64
2021/09/19 11:36:44;;;;;;;3.10;1.02;;;;;;;17.54;61.74;99608.96;1744294;79;21114;-63
2021/09/19 11:39:11;;;;;;;1.77;0.85;;;;;;;17.46;61.32;99606.41;1726674;80;21036;-63
2021/09/19 11:41:38;;;;;;;2.60;0.80;;;;;;;17.41;60.89;99610.14;1739863;79;21059;-63
2021/09/19 11:44:04;;;;;;;2.15;0.60;;;;;;;17.31;60.12;99609.09;1728656;80;21082;-64